sensor_id;sensor_type;location;lat;lon;timestamp;temperature;humidity
51811;DHT22;52468;40.116;18.296;2023-03-12T00:00:10;12.70;78.10
51811;DHT22;52468;40.116;18.296;2023-03-12T00:02:38;12.80;78.40
51811;DHT22;52468;40.116;18.296;2023-03-12T00:05:06;12.70;78.80
51811;DHT22;52468;40.116;18.296;2023-03-12T00:07:34;12.70;79.10
51811;DHT22;52468;40.116;18.296;2023-03-12T00:10:06;12.80;79.40
51811;DHT22;52468;40.116;18.296;2023-03-12T00:12:34;12.80;79.70
51811;DHT22;52468;40.116;18.296;2023-03-12T00:15:02;12.90;79.80
51811;DHT22;52468;40.116;18.296;2023-03-12T00:17:30;13.10;79.70
51811;DHT22;52468;40.116;18.296;2023-03-12T00:19:58;13.10;79.90
51811;DHT22;52468;40.116;18.296;2023-03-12T00:22:26;13.10;80.00
51811;DHT22;52468;40.116;18.296;2023-03-12T00:24:55;13.20;79.80
51811;DHT22;52468;40.116;18.296;2023-03-12T00:27:24;13.10;80.10
51811;DHT22;52468;40.116;18.296;2023-03-12T00:29:53;13.10;80.30
51811;DHT22;52468;40.116;18.296;2023-03-12T00:32:21;13.20;80.30
51811;DHT22;52468;40.116;18.296;2023-03-12T00:34:53;13.30;80.10
51811;DHT22;52468;40.116;18.296;2023-03-12T00:37:22;13.40;80.10
51811;DHT22;52468;40.116;18.296;2023-03-12T00:40:00;13.40;80.30
51811;DHT22;52468;40.116;18.296;2023-03-12T00:42:28;13.50;80.30
51811;DHT22;52468;40.116;18.296;2023-03-12T00:44:56;13.50;80.30
51811;DHT22;52468;40.116;18.296;2023-03-12T00:47:23;13.50;80.10
51811;DHT22;52468;40.116;18.296;2023-03-12T00:49:51;13.60;80.00
51811;DHT22;52468;40.116;18.296;2023-03-12T00:52:19;13.50;79.90
51811;DHT22;52468;40.116;18.296;2023-03-12T00:54:47;13.50;79.90
51811;DHT22;52468;40.116;18.296;2023-03-12T00:57:15;13.60;79.90
51811;DHT22;52468;40.116;18.296;2023-03-12T00:59:42;13.60;79.80
51811;DHT22;52468;40.116;18.296;2023-03-12T01:02:10;13.50;80.00
51811;DHT22;52468;40.116;18.296;2023-03-12T01:04:38;13.40;80.30
51811;DHT22;52468;40.116;18.296;2023-03-12T01:07:06;13.60;80.40
51811;DHT22;52468;40.116;18.296;2023-03-12T01:09:34;13.60;80.20
51811;DHT22;52468;40.116;18.296;2023-03-12T01:12:02;13.60;79.70
51811;DHT22;52468;40.116;18.296;2023-03-12T01:14:30;13.70;79.30
51811;DHT22;52468;40.116;18.296;2023-03-12T01:16:58;13.70;79.20
51811;DHT22;52468;40.116;18.296;2023-03-12T01:19:25;13.60;79.50
51811;DHT22;52468;40.116;18.296;2023-03-12T01:21:53;13.60;79.90
51811;DHT22;52468;40.116;18.296;2023-03-12T01:24:21;13.60;79.90
51811;DHT22;52468;40.116;18.296;2023-03-12T01:26:49;13.80;79.40
51811;DHT22;52468;40.116;18.296;2023-03-12T01:29:17;13.80;79.30
51811;DHT22;52468;40.116;18.296;2023-03-12T01:31:45;13.70;79.50
51811;DHT22;52468;40.116;18.296;2023-03-12T01:34:13;13.70;79.50
51811;DHT22;52468;40.116;18.296;2023-03-12T01:36:41;13.80;79.60
51811;DHT22;52468;40.116;18.296;2023-03-12T01:39:09;13.80;79.50
51811;DHT22;52468;40.116;18.296;2023-03-12T01:41:37;13.90;79.30
51811;DHT22;52468;40.116;18.296;2023-03-12T01:44:05;14.00;78.90
51811;DHT22;52468;40.116;18.296;2023-03-12T01:46:39;14.00;78.70
51811;DHT22;52468;40.116;18.296;2023-03-12T01:49:27;14.00;78.50
51811;DHT22;52468;40.116;18.296;2023-03-12T01:52:35;14.00;78.40
51811;DHT22;52468;40.116;18.296;2023-03-12T01:55:10;14.00;78.20
51811;DHT22;52468;40.116;18.296;2023-03-12T01:57:47;14.00;77.90
51811;DHT22;52468;40.116;18.296;2023-03-12T02:00:26;13.90;77.60
51811;DHT22;52468;40.116;18.296;2023-03-12T02:03:01;13.80;77.40
51811;DHT22;52468;40.116;18.296;2023-03-12T02:05:52;13.80;77.40
51811;DHT22;52468;40.116;18.296;2023-03-12T02:08:22;13.70;77.50
51811;DHT22;52468;40.116;18.296;2023-03-12T02:10:50;13.60;77.50
51811;DHT22;52468;40.116;18.296;2023-03-12T02:13:18;13.60;77.50
51811;DHT22;52468;40.116;18.296;2023-03-12T02:15:47;13.50;77.70
51811;DHT22;52468;40.116;18.296;2023-03-12T02:18:17;13.40;77.70
51811;DHT22;52468;40.116;18.296;2023-03-12T02:20:58;13.30;77.70
51811;DHT22;52468;40.116;18.296;2023-03-12T02:23:33;13.20;77.80
51811;DHT22;52468;40.116;18.296;2023-03-12T02:26:03;13.20;78.00
51811;DHT22;52468;40.116;18.296;2023-03-12T02:28:34;13.10;78.10
51811;DHT22;52468;40.116;18.296;2023-03-12T02:31:13;13.10;78.40
51811;DHT22;52468;40.116;18.296;2023-03-12T02:33:41;13.10;78.60
51811;DHT22;52468;40.116;18.296;2023-03-12T02:36:09;13.10;78.60
51811;DHT22;52468;40.116;18.296;2023-03-12T02:38:47;13.10;78.40
51811;DHT22;52468;40.116;18.296;2023-03-12T02:41:38;13.10;78.40
51811;DHT22;52468;40.116;18.296;2023-03-12T02:46:45;12.90;78.70
51811;DHT22;52468;40.116;18.296;2023-03-12T02:49:14;12.70;79.20
51811;DHT22;52468;40.116;18.296;2023-03-12T02:51:43;12.70;79.40
51811;DHT22;52468;40.116;18.296;2023-03-12T02:54:12;12.70;79.50
51811;DHT22;52468;40.116;18.296;2023-03-12T02:56:40;12.70;79.50
51811;DHT22;52468;40.116;18.296;2023-03-12T02:59:09;12.80;79.70
51811;DHT22;52468;40.116;18.296;2023-03-12T03:01:41;12.80;79.80
51811;DHT22;52468;40.116;18.296;2023-03-12T03:04:10;13.00;79.50
51811;DHT22;52468;40.116;18.296;2023-03-12T03:06:42;13.00;79.60
51811;DHT22;52468;40.116;18.296;2023-03-12T03:09:11;13.10;79.30
51811;DHT22;52468;40.116;18.296;2023-03-12T03:11:38;13.20;79.20
51811;DHT22;52468;40.116;18.296;2023-03-12T03:14:08;13.30;78.80
51811;DHT22;52468;40.116;18.296;2023-03-12T03:16:37;13.30;78.80
51811;DHT22;52468;40.116;18.296;2023-03-12T03:19:05;13.40;78.50
51811;DHT22;52468;40.116;18.296;2023-03-12T03:21:34;13.40;78.30
51811;DHT22;52468;40.116;18.296;2023-03-12T03:24:02;13.30;78.40
51811;DHT22;52468;40.116;18.296;2023-03-12T03:26:30;13.30;78.50
51811;DHT22;52468;40.116;18.296;2023-03-12T03:28:58;13.30;78.50
51811;DHT22;52468;40.116;18.296;2023-03-12T03:31:26;13.30;78.50
51811;DHT22;52468;40.116;18.296;2023-03-12T03:33:54;13.30;78.20
51811;DHT22;52468;40.116;18.296;2023-03-12T03:36:22;13.20;78.20
51811;DHT22;52468;40.116;18.296;2023-03-12T03:39:00;13.20;78.20
51811;DHT22;52468;40.116;18.296;2023-03-12T03:41:41;13.20;78.10
51811;DHT22;52468;40.116;18.296;2023-03-12T03:44:09;13.20;78.10
51811;DHT22;52468;40.116;18.296;2023-03-12T03:46:38;13.20;77.80
51811;DHT22;52468;40.116;18.296;2023-03-12T03:49:09;13.20;78.00
51811;DHT22;52468;40.116;18.296;2023-03-12T03:51:40;13.20;78.10
51811;DHT22;52468;40.116;18.296;2023-03-12T03:54:14;13.20;78.00
51811;DHT22;52468;40.116;18.296;2023-03-12T03:56:44;13.10;78.20
51811;DHT22;52468;40.116;18.296;2023-03-12T03:59:12;13.20;78.50
51811;DHT22;52468;40.116;18.296;2023-03-12T04:01:41;13.20;78.00
51811;DHT22;52468;40.116;18.296;2023-03-12T04:04:09;13.30;77.80
51811;DHT22;52468;40.116;18.296;2023-03-12T04:06:37;13.30;78.10
51811;DHT22;52468;40.116;18.296;2023-03-12T04:09:05;13.20;78.10
51811;DHT22;52468;40.116;18.296;2023-03-12T04:11:35;13.10;78.00
51811;DHT22;52468;40.116;18.296;2023-03-12T04:14:06;13.10;78.00
51811;DHT22;52468;40.116;18.296;2023-03-12T04:16:36;12.90;78.50
51811;DHT22;52468;40.116;18.296;2023-03-12T04:19:04;12.80;78.80
51811;DHT22;52468;40.116;18.296;2023-03-12T04:21:32;12.70;79.10
51811;DHT22;52468;40.116;18.296;2023-03-12T04:24:00;12.60;79.60
51811;DHT22;52468;40.116;18.296;2023-03-12T04:26:32;12.60;79.90
51811;DHT22;52468;40.116;18.296;2023-03-12T04:29:01;12.50;79.80
51811;DHT22;52468;40.116;18.296;2023-03-12T04:31:29;12.40;80.10
51811;DHT22;52468;40.116;18.296;2023-03-12T04:33:57;12.40;79.90
51811;DHT22;52468;40.116;18.296;2023-03-12T04:36:25;12.30;80.60
51811;DHT22;52468;40.116;18.296;2023-03-12T04:38:55;12.40;80.40
51811;DHT22;52468;40.116;18.296;2023-03-12T04:41:27;12.30;80.60
51811;DHT22;52468;40.116;18.296;2023-03-12T04:44:02;12.40;80.50
51811;DHT22;52468;40.116;18.296;2023-03-12T04:46:30;12.40;80.50
51811;DHT22;52468;40.116;18.296;2023-03-12T04:48:59;12.40;80.50
51811;DHT22;52468;40.116;18.296;2023-03-12T04:51:31;12.40;80.50
51811;DHT22;52468;40.116;18.296;2023-03-12T04:54:01;12.30;80.80
51811;DHT22;52468;40.116;18.296;2023-03-12T04:56:30;12.30;81.20
51811;DHT22;52468;40.116;18.296;2023-03-12T04:59:21;12.20;81.90
51811;DHT22;52468;40.116;18.296;2023-03-12T05:01:49;12.10;82.00
51811;DHT22;52468;40.116;18.296;2023-03-12T05:04:23;12.10;82.50
51811;DHT22;52468;40.116;18.296;2023-03-12T05:06:51;12.10;82.90
51811;DHT22;52468;40.116;18.296;2023-03-12T05:09:19;12.00;83.00
51811;DHT22;52468;40.116;18.296;2023-03-12T05:11:47;12.00;83.60
51811;DHT22;52468;40.116;18.296;2023-03-12T05:14:18;12.00;84.10
51811;DHT22;52468;40.116;18.296;2023-03-12T05:16:47;12.10;84.10
51811;DHT22;52468;40.116;18.296;2023-03-12T05:19:15;12.10;84.10
51811;DHT22;52468;40.116;18.296;2023-03-12T05:21:43;12.10;84.20
51811;DHT22;52468;40.116;18.296;2023-03-12T05:24:11;12.20;84.40
51811;DHT22;52468;40.116;18.296;2023-03-12T05:26:39;12.20;84.60
51811;DHT22;52468;40.116;18.296;2023-03-12T05:29:15;12.30;84.50
51811;DHT22;52468;40.116;18.296;2023-03-12T05:31:43;12.30;84.30
51811;DHT22;52468;40.116;18.296;2023-03-12T05:34:12;12.30;84.70
51811;DHT22;52468;40.116;18.296;2023-03-12T05:36:42;12.40;84.60
51811;DHT22;52468;40.116;18.296;2023-03-12T05:39:12;12.40;84.60
51811;DHT22;52468;40.116;18.296;2023-03-12T05:41:40;12.50;84.40
51811;DHT22;52468;40.116;18.296;2023-03-12T05:44:16;12.60;84.30
51811;DHT22;52468;40.116;18.296;2023-03-12T05:46:49;12.70;84.40
51811;DHT22;52468;40.116;18.296;2023-03-12T05:49:17;12.80;84.20
51811;DHT22;52468;40.116;18.296;2023-03-12T05:51:49;12.90;84.30
51811;DHT22;52468;40.116;18.296;2023-03-12T05:54:20;13.10;84.50
51811;DHT22;52468;40.116;18.296;2023-03-12T05:56:51;13.30;83.50
51811;DHT22;52468;40.116;18.296;2023-03-12T05:59:21;13.60;83.40
51811;DHT22;52468;40.116;18.296;2023-03-12T06:02:12;13.60;83.00
51811;DHT22;52468;40.116;18.296;2023-03-12T06:04:40;13.80;83.00
51811;DHT22;52468;40.116;18.296;2023-03-12T06:07:08;13.90;82.70
51811;DHT22;52468;40.116;18.296;2023-03-12T06:09:36;14.00;82.50
51811;DHT22;52468;40.116;18.296;2023-03-12T06:12:04;14.10;82.50
51811;DHT22;52468;40.116;18.296;2023-03-12T06:14:35;14.10;82.40
51811;DHT22;52468;40.116;18.296;2023-03-12T06:17:02;14.30;82.50
51811;DHT22;52468;40.116;18.296;2023-03-12T06:19:30;14.60;81.40
51811;DHT22;52468;40.116;18.296;2023-03-12T06:21:58;14.80;80.60
51811;DHT22;52468;40.116;18.296;2023-03-12T06:24:27;14.90;79.80
51811;DHT22;52468;40.116;18.296;2023-03-12T06:27:04;15.00;79.60
51811;DHT22;52468;40.116;18.296;2023-03-12T06:29:32;15.00;79.50
51811;DHT22;52468;40.116;18.296;2023-03-12T06:32:00;15.10;79.40
51811;DHT22;52468;40.116;18.296;2023-03-12T06:34:28;15.10;79.30
51811;DHT22;52468;40.116;18.296;2023-03-12T06:36:55;15.20;78.60
51811;DHT22;52468;40.116;18.296;2023-03-12T06:39:23;15.30;79.10
51811;DHT22;52468;40.116;18.296;2023-03-12T06:41:51;15.30;78.60
51811;DHT22;52468;40.116;18.296;2023-03-12T06:44:19;15.50;78.40
51811;DHT22;52468;40.116;18.296;2023-03-12T06:46:47;15.50;78.50
51811;DHT22;52468;40.116;18.296;2023-03-12T06:49:15;15.70;78.50
51811;DHT22;52468;40.116;18.296;2023-03-12T06:51:43;16.00;77.70
51811;DHT22;52468;40.116;18.296;2023-03-12T06:54:11;16.00;77.40
51811;DHT22;52468;40.116;18.296;2023-03-12T06:56:38;16.00;76.80
51811;DHT22;52468;40.116;18.296;2023-03-12T06:59:06;16.10;76.50
51811;DHT22;52468;40.116;18.296;2023-03-12T07:01:57;16.20;76.60
51811;DHT22;52468;40.116;18.296;2023-03-12T07:04:25;16.30;76.30
51811;DHT22;52468;40.116;18.296;2023-03-12T07:06:53;16.40;76.20
51811;DHT22;52468;40.116;18.296;2023-03-12T07:09:20;16.50;75.90
51811;DHT22;52468;40.116;18.296;2023-03-12T07:11:48;16.60;75.70
51811;DHT22;52468;40.116;18.296;2023-03-12T07:14:16;16.70;75.00
51811;DHT22;52468;40.116;18.296;2023-03-12T07:16:46;16.70;75.70
51811;DHT22;52468;40.116;18.296;2023-03-12T07:19:14;17.00;75.10
51811;DHT22;52468;40.116;18.296;2023-03-12T07:21:42;17.00;75.00
51811;DHT22;52468;40.116;18.296;2023-03-12T07:24:10;17.30;75.10
51811;DHT22;52468;40.116;18.296;2023-03-12T07:26:38;17.40;73.70
51811;DHT22;52468;40.116;18.296;2023-03-12T07:29:09;17.40;72.80
51811;DHT22;52468;40.116;18.296;2023-03-12T07:31:37;17.50;72.80
51811;DHT22;52468;40.116;18.296;2023-03-12T07:34:05;17.70;72.70
51811;DHT22;52468;40.116;18.296;2023-03-12T07:36:33;17.80;72.50
51811;DHT22;52468;40.116;18.296;2023-03-12T07:39:01;17.80;71.10
51811;DHT22;52468;40.116;18.296;2023-03-12T07:41:29;17.80;71.70
51811;DHT22;52468;40.116;18.296;2023-03-12T07:43:56;17.90;71.40
51811;DHT22;52468;40.116;18.296;2023-03-12T07:46:24;17.80;71.00
51811;DHT22;52468;40.116;18.296;2023-03-12T07:48:52;17.80;71.60
51811;DHT22;52468;40.116;18.296;2023-03-12T07:51:20;18.20;71.80
51811;DHT22;52468;40.116;18.296;2023-03-12T07:53:47;18.60;71.20
51811;DHT22;52468;40.116;18.296;2023-03-12T07:56:15;18.90;70.40
51811;DHT22;52468;40.116;18.296;2023-03-12T07:58:43;19.20;68.10
51811;DHT22;52468;40.116;18.296;2023-03-12T08:01:11;19.30;67.90
51811;DHT22;52468;40.116;18.296;2023-03-12T08:03:39;19.40;67.50
51811;DHT22;52468;40.116;18.296;2023-03-12T08:06:07;19.50;66.80
51811;DHT22;52468;40.116;18.296;2023-03-12T08:08:35;19.50;66.20
51811;DHT22;52468;40.116;18.296;2023-03-12T08:11:04;19.50;66.70
51811;DHT22;52468;40.116;18.296;2023-03-12T08:13:32;19.50;65.60
51811;DHT22;52468;40.116;18.296;2023-03-12T08:16:00;19.40;64.90
51811;DHT22;52468;40.116;18.296;2023-03-12T08:18:28;19.30;64.00
51811;DHT22;52468;40.116;18.296;2023-03-12T08:20:56;19.20;64.50
51811;DHT22;52468;40.116;18.296;2023-03-12T08:23:24;19.00;64.60
51811;DHT22;52468;40.116;18.296;2023-03-12T08:25:53;18.80;64.70
51811;DHT22;52468;40.116;18.296;2023-03-12T08:28:22;18.80;65.30
51811;DHT22;52468;40.116;18.296;2023-03-12T08:30:52;18.90;64.80
51811;DHT22;52468;40.116;18.296;2023-03-12T08:33:21;18.80;64.90
51811;DHT22;52468;40.116;18.296;2023-03-12T08:35:49;18.60;65.70
51811;DHT22;52468;40.116;18.296;2023-03-12T08:38:18;18.90;64.90
51811;DHT22;52468;40.116;18.296;2023-03-12T08:40:45;18.90;64.40
51811;DHT22;52468;40.116;18.296;2023-03-12T08:43:13;19.00;64.30
51811;DHT22;52468;40.116;18.296;2023-03-12T08:45:41;19.20;63.80
51811;DHT22;52468;40.116;18.296;2023-03-12T08:48:09;19.40;63.20
51811;DHT22;52468;40.116;18.296;2023-03-12T08:50:36;19.70;61.50
51811;DHT22;52468;40.116;18.296;2023-03-12T08:53:08;20.00;61.00
51811;DHT22;52468;40.116;18.296;2023-03-12T08:55:36;20.00;59.60
51811;DHT22;52468;40.116;18.296;2023-03-12T08:58:04;20.20;58.80
51811;DHT22;52468;40.116;18.296;2023-03-12T09:00:31;20.20;58.50
51811;DHT22;52468;40.116;18.296;2023-03-12T09:03:00;20.40;59.10
51811;DHT22;52468;40.116;18.296;2023-03-12T09:05:29;20.50;58.70
51811;DHT22;52468;40.116;18.296;2023-03-12T09:07:58;20.30;59.30
51811;DHT22;52468;40.116;18.296;2023-03-12T09:10:26;20.10;60.20
51811;DHT22;52468;40.116;18.296;2023-03-12T09:12:57;20.10;60.60
51811;DHT22;52468;40.116;18.296;2023-03-12T09:15:25;20.20;60.60
51811;DHT22;52468;40.116;18.296;2023-03-12T09:17:53;20.50;60.00
51811;DHT22;52468;40.116;18.296;2023-03-12T09:20:23;20.80;59.60
51811;DHT22;52468;40.116;18.296;2023-03-12T09:22:52;20.50;59.10
51811;DHT22;52468;40.116;18.296;2023-03-12T09:25:19;20.20;59.00
51811;DHT22;52468;40.116;18.296;2023-03-12T09:27:49;20.00;59.40
51811;DHT22;52468;40.116;18.296;2023-03-12T09:30:19;19.80;59.70
51811;DHT22;52468;40.116;18.296;2023-03-12T09:32:53;19.80;59.70
51811;DHT22;52468;40.116;18.296;2023-03-12T09:35:21;19.80;59.70
51811;DHT22;52468;40.116;18.296;2023-03-12T09:37:49;19.80;59.90
51811;DHT22;52468;40.116;18.296;2023-03-12T09:40:20;19.70;59.60
51811;DHT22;52468;40.116;18.296;2023-03-12T09:42:52;19.80;59.50
51811;DHT22;52468;40.116;18.296;2023-03-12T09:45:24;19.90;59.90
51811;DHT22;52468;40.116;18.296;2023-03-12T09:47:56;20.10;59.20
51811;DHT22;52468;40.116;18.296;2023-03-12T09:55:40;19.50;60.10
51811;DHT22;52468;40.116;18.296;2023-03-12T09:58:24;19.60;59.20
51811;DHT22;52468;40.116;18.296;2023-03-12T10:07:20;20.50;57.40
51811;DHT22;52468;40.116;18.296;2023-03-12T10:26:41;20.10;56.00
51811;DHT22;52468;40.116;18.296;2023-03-12T10:29:20;20.10;55.40
51811;DHT22;52468;40.116;18.296;2023-03-12T10:31:59;20.40;54.70
51811;DHT22;52468;40.116;18.296;2023-03-12T10:37:37;20.60;53.70
51811;DHT22;52468;40.116;18.296;2023-03-12T10:40:11;20.40;54.00
51811;DHT22;52468;40.116;18.296;2023-03-12T10:42:47;20.20;53.80
51811;DHT22;52468;40.116;18.296;2023-03-12T10:45:26;20.00;53.90
51811;DHT22;52468;40.116;18.296;2023-03-12T10:48:03;19.90;54.70
51811;DHT22;52468;40.116;18.296;2023-03-12T10:50:38;20.00;54.80
51811;DHT22;52468;40.116;18.296;2023-03-12T10:55:40;20.00;53.10
51811;DHT22;52468;40.116;18.296;2023-03-12T10:58:22;19.80;53.70
51811;DHT22;52468;40.116;18.296;2023-03-12T11:00:58;19.70;53.40
51811;DHT22;52468;40.116;18.296;2023-03-12T11:03:27;19.60;53.00
51811;DHT22;52468;40.116;18.296;2023-03-12T11:05:59;19.40;52.30
51811;DHT22;52468;40.116;18.296;2023-03-12T11:08:35;19.20;52.20
51811;DHT22;52468;40.116;18.296;2023-03-12T11:11:04;19.30;51.90
51811;DHT22;52468;40.116;18.296;2023-03-12T11:13:33;19.30;51.00
51811;DHT22;52468;40.116;18.296;2023-03-12T11:16:25;19.50;50.80
51811;DHT22;52468;40.116;18.296;2023-03-12T11:19:00;19.50;49.90
51811;DHT22;52468;40.116;18.296;2023-03-12T11:21:32;19.50;50.00
51811;DHT22;52468;40.116;18.296;2023-03-12T11:24:05;19.60;49.50
51811;DHT22;52468;40.116;18.296;2023-03-12T11:29:34;19.50;48.70
51811;DHT22;52468;40.116;18.296;2023-03-12T11:32:35;19.50;48.50
51811;DHT22;52468;40.116;18.296;2023-03-12T11:35:12;19.60;48.00
51811;DHT22;52468;40.116;18.296;2023-03-12T11:38:20;19.30;47.70
51811;DHT22;52468;40.116;18.296;2023-03-12T11:49:27;19.10;47.10
51811;DHT22;52468;40.116;18.296;2023-03-12T12:09:05;20.00;43.20
51811;DHT22;52468;40.116;18.296;2023-03-12T12:14:45;20.10;40.80
51811;DHT22;52468;40.116;18.296;2023-03-12T12:22:45;20.30;39.00
51811;DHT22;52468;40.116;18.296;2023-03-12T12:31:26;20.00;36.30
51811;DHT22;52468;40.116;18.296;2023-03-12T12:40:13;20.00;35.80
51811;DHT22;52468;40.116;18.296;2023-03-12T12:43:00;19.90;36.10
51811;DHT22;52468;40.116;18.296;2023-03-12T12:45:30;19.90;36.60
51811;DHT22;52468;40.116;18.296;2023-03-12T12:48:05;19.80;36.10
51811;DHT22;52468;40.116;18.296;2023-03-12T12:50:38;19.50;36.10
51811;DHT22;52468;40.116;18.296;2023-03-12T12:56:14;19.60;36.50
51811;DHT22;52468;40.116;18.296;2023-03-12T13:01:26;19.30;38.20
51811;DHT22;52468;40.116;18.296;2023-03-12T13:04:10;19.30;37.10
51811;DHT22;52468;40.116;18.296;2023-03-12T13:06:54;19.30;37.50
51811;DHT22;52468;40.116;18.296;2023-03-12T13:09:36;19.20;38.10
51811;DHT22;52468;40.116;18.296;2023-03-12T13:12:24;19.50;36.40
51811;DHT22;52468;40.116;18.296;2023-03-12T13:14:55;19.70;36.30
51811;DHT22;52468;40.116;18.296;2023-03-12T13:17:33;19.60;34.40
51811;DHT22;52468;40.116;18.296;2023-03-12T13:20:18;19.90;34.70
51811;DHT22;52468;40.116;18.296;2023-03-12T13:23:25;19.80;36.10
51811;DHT22;52468;40.116;18.296;2023-03-12T13:36:36;20.00;32.80
51811;DHT22;52468;40.116;18.296;2023-03-12T13:41:44;20.20;29.60
51811;DHT22;52468;40.116;18.296;2023-03-12T13:50:00;19.40;30.30
51811;DHT22;52468;40.116;18.296;2023-03-12T13:52:40;19.00;30.00
51811;DHT22;52468;40.116;18.296;2023-03-12T13:55:27;19.00;30.60
51811;DHT22;52468;40.116;18.296;2023-03-12T14:01:03;19.00;31.10
51811;DHT22;52468;40.116;18.296;2023-03-12T14:03:40;18.90;31.80
51811;DHT22;52468;40.116;18.296;2023-03-12T14:06:12;19.10;29.90
51811;DHT22;52468;40.116;18.296;2023-03-12T14:18:43;18.60;30.30
51811;DHT22;52468;40.116;18.296;2023-03-12T14:21:14;18.70;31.20
51811;DHT22;52468;40.116;18.296;2023-03-12T14:23:53;19.00;32.20
51811;DHT22;52468;40.116;18.296;2023-03-12T14:26:27;19.30;32.00
51811;DHT22;52468;40.116;18.296;2023-03-12T14:29:13;19.40;31.00
51811;DHT22;52468;40.116;18.296;2023-03-12T14:31:46;19.40;30.00
51811;DHT22;52468;40.116;18.296;2023-03-12T14:34:17;19.50;28.60
51811;DHT22;52468;40.116;18.296;2023-03-12T14:37:01;19.20;29.00
51811;DHT22;52468;40.116;18.296;2023-03-12T14:40:05;19.20;30.30
51811;DHT22;52468;40.116;18.296;2023-03-12T14:42:32;19.30;30.70
51811;DHT22;52468;40.116;18.296;2023-03-12T14:45:36;19.10;31.70
51811;DHT22;52468;40.116;18.296;2023-03-12T14:48:09;19.60;32.00
51811;DHT22;52468;40.116;18.296;2023-03-12T14:50:39;20.70;31.30
51811;DHT22;52468;40.116;18.296;2023-03-12T14:53:23;21.70;29.80
51811;DHT22;52468;40.116;18.296;2023-03-12T14:56:13;22.30;29.00
51811;DHT22;52468;40.116;18.296;2023-03-12T14:58:44;22.10;29.30
51811;DHT22;52468;40.116;18.296;2023-03-12T15:01:32;21.00;31.10
51811;DHT22;52468;40.116;18.296;2023-03-12T15:04:13;20.00;33.00
51811;DHT22;52468;40.116;18.296;2023-03-12T15:06:53;19.50;33.80
51811;DHT22;52468;40.116;18.296;2023-03-12T15:09:27;18.60;35.10
51811;DHT22;52468;40.116;18.296;2023-03-12T15:12:02;19.40;34.40
51811;DHT22;52468;40.116;18.296;2023-03-12T15:14:34;20.30;33.10
51811;DHT22;52468;40.116;18.296;2023-03-12T15:17:04;21.10;32.00
51811;DHT22;52468;40.116;18.296;2023-03-12T15:19:37;21.40;31.00
51811;DHT22;52468;40.116;18.296;2023-03-12T15:22:14;21.60;30.70
51811;DHT22;52468;40.116;18.296;2023-03-12T15:24:42;22.00;30.20
51811;DHT22;52468;40.116;18.296;2023-03-12T15:29:57;21.10;31.30
51811;DHT22;52468;40.116;18.296;2023-03-12T15:32:27;20.20;33.20
51811;DHT22;52468;40.116;18.296;2023-03-12T15:34:57;20.00;33.60
51811;DHT22;52468;40.116;18.296;2023-03-12T15:37:33;19.90;34.20
51811;DHT22;52468;40.116;18.296;2023-03-12T15:40:15;19.30;35.00
51811;DHT22;52468;40.116;18.296;2023-03-12T15:42:46;18.40;36.50
51811;DHT22;52468;40.116;18.296;2023-03-12T15:45:22;17.70;37.90
51811;DHT22;52468;40.116;18.296;2023-03-12T15:47:52;16.90;39.70
51811;DHT22;52468;40.116;18.296;2023-03-12T15:50:30;16.40;40.80
51811;DHT22;52468;40.116;18.296;2023-03-12T15:55:38;15.60;42.30
51811;DHT22;52468;40.116;18.296;2023-03-12T15:58:28;15.50;42.80
51811;DHT22;52468;40.116;18.296;2023-03-12T16:01:24;15.50;43.20
51811;DHT22;52468;40.116;18.296;2023-03-12T16:03:54;15.40;43.70
51811;DHT22;52468;40.116;18.296;2023-03-12T16:06:25;15.40;43.90
51811;DHT22;52468;40.116;18.296;2023-03-12T16:08:57;15.30;44.20
51811;DHT22;52468;40.116;18.296;2023-03-12T16:11:31;15.40;44.50
51811;DHT22;52468;40.116;18.296;2023-03-12T16:14:03;15.30;44.90
51811;DHT22;52468;40.116;18.296;2023-03-12T16:16:33;15.30;45.10
51811;DHT22;52468;40.116;18.296;2023-03-12T16:19:01;15.10;45.60
51811;DHT22;52468;40.116;18.296;2023-03-12T16:21:32;15.00;46.10
51811;DHT22;52468;40.116;18.296;2023-03-12T16:24:00;15.00;46.10
51811;DHT22;52468;40.116;18.296;2023-03-12T16:26:28;14.90;46.50
51811;DHT22;52468;40.116;18.296;2023-03-12T16:28:56;14.80;46.60
51811;DHT22;52468;40.116;18.296;2023-03-12T16:31:24;14.70;46.90
51811;DHT22;52468;40.116;18.296;2023-03-12T16:33:52;14.60;47.50
51811;DHT22;52468;40.116;18.296;2023-03-12T16:36:20;14.50;48.10
51811;DHT22;52468;40.116;18.296;2023-03-12T16:38:48;14.40;48.70
51811;DHT22;52468;40.116;18.296;2023-03-12T16:41:17;14.40;48.80
51811;DHT22;52468;40.116;18.296;2023-03-12T16:46:18;14.30;49.50
51811;DHT22;52468;40.116;18.296;2023-03-12T16:51:17;14.10;50.20
51811;DHT22;52468;40.116;18.296;2023-03-12T16:53:45;14.00;50.60
51811;DHT22;52468;40.116;18.296;2023-03-12T16:56:21;14.00;51.00
51811;DHT22;52468;40.116;18.296;2023-03-12T16:58:50;14.00;51.30
51811;DHT22;52468;40.116;18.296;2023-03-12T17:01:21;13.90;51.60
51811;DHT22;52468;40.116;18.296;2023-03-12T17:03:49;13.80;51.90
51811;DHT22;52468;40.116;18.296;2023-03-12T17:06:22;13.80;52.10
51811;DHT22;52468;40.116;18.296;2023-03-12T17:08:51;13.80;52.10
51811;DHT22;52468;40.116;18.296;2023-03-12T17:11:25;13.70;52.60
51811;DHT22;52468;40.116;18.296;2023-03-12T17:14:01;13.60;53.00
51811;DHT22;52468;40.116;18.296;2023-03-12T17:16:30;13.60;53.30
51811;DHT22;52468;40.116;18.296;2023-03-12T17:18:58;13.60;53.40
51811;DHT22;52468;40.116;18.296;2023-03-12T17:21:26;13.50;53.90
51811;DHT22;52468;40.116;18.296;2023-03-12T17:26:21;13.30;54.60
51811;DHT22;52468;40.116;18.296;2023-03-12T17:28:49;13.30;55.30
51811;DHT22;52468;40.116;18.296;2023-03-12T17:31:17;13.30;55.70
51811;DHT22;52468;40.116;18.296;2023-03-12T17:33:45;13.20;56.20
51811;DHT22;52468;40.116;18.296;2023-03-12T17:36:13;13.20;56.80
51811;DHT22;52468;40.116;18.296;2023-03-12T17:38:40;13.20;57.10
51811;DHT22;52468;40.116;18.296;2023-03-12T17:41:08;13.10;57.70
51811;DHT22;52468;40.116;18.296;2023-03-12T17:43:52;13.10;58.00
51811;DHT22;52468;40.116;18.296;2023-03-12T17:46:20;13.10;58.20
51811;DHT22;52468;40.116;18.296;2023-03-12T17:48:48;13.10;58.50
51811;DHT22;52468;40.116;18.296;2023-03-12T17:51:15;13.10;58.90
51811;DHT22;52468;40.116;18.296;2023-03-12T17:53:43;13.10;59.00
51811;DHT22;52468;40.116;18.296;2023-03-12T17:56:11;13.00;59.20
51811;DHT22;52468;40.116;18.296;2023-03-12T17:58:59;13.00;59.50